Terminal Aerodrome Forecast
Issued by NWS Paducah, KY

Home | Current Version | Previous Version | Text Only | Print | Product List | Glossary Off
Versions: 1 2 3 4 5 6 7 8 9 10 11 12 13 14 15 16 17 18 19 20 21 22 23 24

000
FTUS43 KPAH 170500
TAFEVV
TAF
KEVV 170520Z 1706/1806 30007KT P6SM OVC015
     FM171000 30004KT P6SM BKN025
     FM171600 31004KT P6SM SCT100 BKN250
     FM180400 01003KT P6SM OVC100=

USA.gov is the U.S. government's official web portal to all federal, state and local government web resources and services.